Time;durP1;ratioP1;P1;durP2;ratioP2;P2;SDS_P1;SDS_P2;PMS_P1;PMS_P2;Temp;Humidity;BMP_temperature;BMP_pressure;BME280_temperature;BME280_humidity;BME280_pressure;Samples;Min_cycle;Max_cycle;Signal;HPM_P1;HPM_P2
2023/01/08 00:00:18;;;;;;;9.50;2.90;;;17.10;37.40;;;;;;6148512;29;20055;-76
2023/01/08 00:03:18;;;;;;;8.63;2.88;;;16.90;38.00;;;;;;6147312;28;20078;-78
2023/01/08 00:06:20;;;;;;;3.97;2.22;;;16.70;38.40;;;;;;6148619;29;20055;-76
2023/01/08 00:09:21;;;;;;;4.03;2.35;;;16.50;39.20;;;;;;6123693;29;20055;-77
2023/01/08 00:12:22;;;;;;;5.57;2.30;;;16.20;39.90;;;;;;6144634;29;20182;-77
2023/01/08 00:15:23;;;;;;;9.88;2.67;;;15.90;40.20;;;;;;6148141;28;20039;-77
2023/01/08 00:18:25;;;;;;;9.63;2.83;;;15.70;40.70;;;;;;6146925;28;20047;-77
2023/01/08 00:21:27;;;;;;;6.68;2.60;;;15.50;41.30;;;;;;6148769;28;20043;-77
2023/01/08 00:24:28;;;;;;;4.82;2.35;;;15.30;41.80;;;;;;6148847;28;20067;-76
2023/01/08 00:27:29;;;;;;;4.80;2.58;;;15.10;42.30;;;;;;6151768;29;20109;-76
2023/01/08 00:30:30;;;;;;;4.95;2.67;;;14.90;42.70;;;;;;6135103;28;20099;-76
2023/01/08 00:33:31;;;;;;;6.18;2.50;;;14.70;43.30;;;;;;6147305;28;20069;-76
2023/01/08 00:36:32;;;;;;;5.47;2.88;;;14.50;43.90;;;;;;6158037;28;20031;-77
2023/01/08 00:39:33;;;;;;;6.05;2.60;;;14.30;44.40;;;;;;6158083;28;20522;-76
2023/01/08 00:42:33;;;;;;;8.15;3.05;;;14.20;44.50;;;;;;6139930;28;20035;-77
2023/01/08 00:45:34;;;;;;;4.93;2.50;;;14.10;44.90;;;;;;6139213;28;20043;-77
2023/01/08 00:48:37;;;;;;;6.60;2.83;;;14.00;45.30;;;;;;6155501;28;20046;-76
2023/01/08 00:51:38;;;;;;;8.98;2.50;;;13.90;45.60;;;;;;6138856;28;20035;-76
2023/01/08 00:54:38;;;;;;;4.43;2.47;;;13.80;46.10;;;;;;6140347;28;20042;-76
2023/01/08 00:57:39;;;;;;;5.85;2.63;;;13.60;46.10;;;;;;6141652;28;20042;-77
2023/01/08 01:00:40;;;;;;;6.55;2.58;;;13.60;46.20;;;;;;6139821;28;20384;-76
2023/01/08 01:03:42;;;;;;;6.18;2.25;;;13.60;46.20;;;;;;6154928;28;20142;-76
2023/01/08 01:06:43;;;;;;;5.47;2.72;;;13.60;46.20;;;;;;6137589;28;20195;-77
2023/01/08 01:09:44;;;;;;;4.18;2.22;;;13.70;46.20;;;;;;6123451;28;20477;-77
2023/01/08 01:12:45;;;;;;;6.28;2.17;;;13.70;46.10;;;;;;6156099;28;20055;-76
2023/01/08 01:15:55;;;;;;;4.28;1.77;;;13.80;46.00;;;;;;6158715;28;20039;-76
2023/01/08 01:18:57;;;;;;;3.13;2.10;;;13.90;45.90;;;;;;6155785;28;20136;-77
2023/01/08 01:21:58;;;;;;;4.95;1.85;;;13.90;45.70;;;;;;6161255;28;20039;-76
2023/01/08 01:24:59;;;;;;;5.95;1.92;;;14.00;45.50;;;;;;6138859;28;20043;-76
2023/01/08 01:28:00;;;;;;;3.70;1.80;;;14.10;45.20;;;;;;6159999;28;20483;-76
2023/01/08 01:31:02;;;;;;;7.82;2.20;;;14.30;45.10;;;;;;6142349;28;20071;-76
2023/01/08 01:34:03;;;;;;;5.82;2.53;;;14.40;44.90;;;;;;6153129;28;20043;-76
2023/01/08 01:37:06;;;;;;;3.97;2.30;;;14.40;44.80;;;;;;6155619;28;20472;-76
2023/01/08 01:40:07;;;;;;;4.55;2.15;;;14.50;44.70;;;;;;6157067;28;20051;-76
2023/01/08 01:43:14;;;;;;;7.90;2.58;;;14.50;44.70;;;;;;6153545;28;20050;-76
2023/01/08 01:46:25;;;;;;;2.08;0.50;;;14.60;45.00;;;;;;6154852;28;20039;-77
2023/01/08 01:49:26;;;;;;;1.48;0.85;;;14.60;43.90;;;;;;6153044;28;20042;-75
2023/01/08 01:52:31;;;;;;;5.57;0.70;;;14.90;42.70;;;;;;6155653;28;20123;-77
2023/01/08 01:55:34;;;;;;;3.25;0.60;;;15.40;41.50;;;;;;6138955;28;20053;-77
2023/01/08 01:58:35;;;;;;;0.80;0.60;;;15.80;40.30;;;;;;6138793;28;20050;-77
2023/01/08 02:01:37;;;;;;;0.85;0.60;;;16.20;39.60;;;;;;6153706;28;20039;-75
2023/01/08 02:04:38;;;;;;;1.55;0.60;;;16.50;38.70;;;;;;6157353;28;20456;-77
2023/01/08 02:07:51;;;;;;;1.35;0.50;;;16.80;38.40;;;;;;6154116;28;20109;-78
2023/01/08 02:11:04;;;;;;;0.88;0.63;;;17.00;37.80;;;;;;6137774;28;20035;-76
2023/01/08 02:14:37;;;;;;;3.08;0.50;;;17.20;36.90;;;;;;6138602;28;20066;-78
2023/01/08 02:17:51;;;;;;;1.52;0.65;;;17.40;36.40;;;;;;6062591;29;20056;-76
2023/01/08 02:21:03;;;;;;;0.40;0.38;;;17.60;35.40;;;;;;6072554;29;20045;-76
2023/01/08 02:24:15;;;;;;;1.65;0.50;;;17.70;35.30;;;;;;6055146;29;20044;-75
2023/01/08 02:27:18;;;;;;;2.28;0.80;;;17.80;35.60;;;;;;6072248;29;20143;-76
2023/01/08 02:30:19;;;;;;;3.50;0.85;;;17.90;35.20;;;;;;6075868;29;20065;-77
2023/01/08 02:33:22;;;;;;;1.52;0.68;;;18.00;35.20;;;;;;6060606;29;20366;-77
2023/01/08 02:36:28;;;;;;;4.47;2.20;;;18.10;35.30;;;;;;6057987;29;20361;-76
2023/01/08 02:39:50;;;;;;;3.83;1.90;;;18.10;35.50;;;;;;6079753;29;20047;-76
2023/01/08 02:43:27;;;;;;;4.50;2.20;;;17.90;36.10;;;;;;6075849;29;20044;-76
2023/01/08 02:46:32;;;;;;;4.65;2.30;;;17.60;36.90;;;;;;6005820;29;22829;-76
2023/01/08 02:49:39;;;;;;;5.20;2.33;;;17.20;37.70;;;;;;6001184;29;20179;-76
2023/01/08 02:52:49;;;;;;;4.15;2.38;;;16.80;38.40;;;;;;6007542;29;20050;-77
2023/01/08 02:55:54;;;;;;;5.53;2.28;;;16.50;39.30;;;;;;6056573;29;20510;-77
2023/01/08 02:58:57;;;;;;;6.00;2.28;;;16.10;40.00;;;;;;6053726;29;20817;-77
2023/01/08 03:02:00;;;;;;;4.68;2.83;;;15.80;40.90;;;;;;6051824;29;20040;-77
2023/01/08 03:05:08;;;;;;;4.35;2.25;;;15.50;41.40;;;;;;6051661;29;20100;-77
2023/01/08 03:08:11;;;;;;;5.50;2.25;;;15.20;42.10;;;;;;6053517;29;20052;-78
2023/01/08 03:11:15;;;;;;;3.03;2.00;;;15.10;42.30;;;;;;6081206;29;20111;-76
2023/01/08 03:14:29;;;;;;;3.00;1.90;;;14.90;42.70;;;;;;6079842;29;20049;-76
2023/01/08 03:17:33;;;;;;;3.65;1.83;;;14.80;42.90;;;;;;6065752;29;20059;-77
2023/01/08 03:20:36;;;;;;;4.82;2.13;;;14.60;43.30;;;;;;6081822;29;20045;-77
2023/01/08 03:23:39;;;;;;;7.07;2.28;;;14.50;43.70;;;;;;6142769;28;20113;-76
2023/01/08 03:26:42;;;;;;;3.72;2.15;;;14.30;44.30;;;;;;6155743;28;20539;-77
2023/01/08 03:29:48;;;;;;;3.90;1.90;;;14.10;44.50;;;;;;6153448;28;20514;-77
2023/01/08 03:32:52;;;;;;;3.20;1.55;;;14.10;44.80;;;;;;6149263;28;20329;-76
2023/01/08 03:35:56;;;;;;;3.83;2.08;;;14.00;44.90;;;;;;6136902;28;20073;-76
2023/01/08 03:39:24;;;;;;;2.67;2.17;;;14.10;44.90;;;;;;6152509;28;20518;-77
2023/01/08 03:42:27;;;;;;;4.65;2.20;;;14.10;44.80;;;;;;6149918;28;20379;-77
2023/01/08 03:45:30;;;;;;;5.60;2.00;;;14.10;44.70;;;;;;6135795;28;20063;-76
2023/01/08 03:48:32;;;;;;;4.38;2.20;;;14.20;44.70;;;;;;6156280;28;20053;-77
2023/01/08 03:51:44;;;;;;;5.10;2.28;;;14.20;44.80;;;;;;6159487;28;20046;-77
2023/01/08 03:54:45;;;;;;;4.97;2.17;;;14.20;44.90;;;;;;6152501;28;20069;-78
2023/01/08 03:57:46;;;;;;;4.72;1.90;;;14.20;45.20;;;;;;6157506;28;20392;-76
2023/01/08 04:00:47;;;;;;;6.28;2.22;;;14.10;45.10;;;;;;6137673;28;20606;-77
2023/01/08 04:03:47;;;;;;;6.10;2.58;;;14.10;45.10;;;;;;6153111;28;20062;-78
2023/01/08 04:06:50;;;;;;;8.30;1.98;;;14.20;45.30;;;;;;6169772;28;20066;-77
2023/01/08 04:09:51;;;;;;;7.35;2.40;;;14.20;45.30;;;;;;6135796;28;20047;-77
2023/01/08 04:12:52;;;;;;;2.67;2.05;;;14.10;45.40;;;;;;6154236;28;20114;-78
2023/01/08 04:15:53;;;;;;;3.00;1.80;;;14.10;45.40;;;;;;6136264;28;20077;-77
2023/01/08 04:18:54;;;;;;;4.95;1.92;;;14.10;45.50;;;;;;6137682;28;20049;-77
2023/01/08 04:21:54;;;;;;;6.43;2.40;;;14.10;45.60;;;;;;6153415;28;20043;-77
2023/01/08 04:24:55;;;;;;;4.28;2.00;;;14.00;45.70;;;;;;6124218;28;20145;-77
2023/01/08 04:27:56;;;;;;;5.60;2.58;;;14.00;45.80;;;;;;6138381;28;20058;-77
2023/01/08 04:30:57;;;;;;;3.10;1.40;;;14.00;46.00;;;;;;6151457;28;20034;-78
2023/01/08 04:33:58;;;;;;;4.47;2.25;;;14.00;45.90;;;;;;6136199;28;20046;-77
2023/01/08 04:36:58;;;;;;;5.88;2.30;;;14.20;45.90;;;;;;6156297;28;20357;-76
2023/01/08 04:39:59;;;;;;;3.85;2.03;;;14.30;45.70;;;;;;6153021;28;20054;-77
2023/01/08 04:43:00;;;;;;;3.80;2.08;;;14.40;45.50;;;;;;6156321;28;20146;-78
2023/01/08 04:46:03;;;;;;;3.75;1.60;;;14.50;45.40;;;;;;6154234;28;20045;-77
2023/01/08 04:49:04;;;;;;;2.92;1.83;;;14.50;45.30;;;;;;6136846;28;20101;-77
2023/01/08 04:52:05;;;;;;;5.13;1.67;;;14.50;45.30;;;;;;6130762;28;21059;-77
2023/01/08 04:55:06;;;;;;;3.83;2.38;;;14.40;45.40;;;;;;6155006;28;20043;-77
2023/01/08 04:58:07;;;;;;;1.85;1.50;;;14.40;45.40;;;;;;6152940;28;20051;-77
2023/01/08 05:01:10;;;;;;;2.58;1.70;;;14.50;45.50;;;;;;6158049;28;20058;-77
2023/01/08 05:04:11;;;;;;;12.35;1.95;;;14.50;45.60;;;;;;6158095;28;20072;-77
2023/01/08 05:07:12;;;;;;;9.80;1.90;;;14.50;45.60;;;;;;6153332;28;20038;-78
2023/01/08 05:14:35;;;;;;;4.68;2.22;;;14.60;45.60;;;;;;6152755;28;20089;-77
2023/01/08 05:17:35;;;;;;;5.78;2.00;;;14.50;45.50;;;;;;6175575;28;20129;-76
2023/01/08 05:20:36;;;;;;;5.63;2.22;;;14.50;45.60;;;;;;6154482;28;20146;-77
2023/01/08 05:23:37;;;;;;;4.80;2.13;;;14.30;45.80;;;;;;6177148;28;20405;-77
2023/01/08 05:26:38;;;;;;;4.53;2.03;;;14.30;46.10;;;;;;6160719;28;20039;-77
2023/01/08 05:29:39;;;;;;;4.50;1.95;;;14.20;46.20;;;;;;6156368;28;20431;-76
2023/01/08 05:32:40;;;;;;;3.80;2.13;;;14.10;46.40;;;;;;6151792;28;20031;-77
2023/01/08 05:35:40;;;;;;;5.97;2.45;;;14.00;46.40;;;;;;6170890;28;21306;-77
2023/01/08 05:38:41;;;;;;;2.80;1.60;;;13.90;46.60;;;;;;6170029;28;20126;-77
2023/01/08 05:41:42;;;;;;;3.75;1.48;;;13.90;46.80;;;;;;6155753;28;20121;-77
2023/01/08 05:44:43;;;;;;;2.50;1.42;;;13.90;46.80;;;;;;6155834;28;20043;-77
2023/01/08 05:47:44;;;;;;;6.78;2.10;;;13.90;46.80;;;;;;6155130;28;20352;-77
2023/01/08 05:50:48;;;;;;;4.18;1.50;;;14.00;46.90;;;;;;6155611;28;20051;-77
2023/01/08 05:53:49;;;;;;;2.65;1.60;;;14.00;46.80;;;;;;6161631;28;20039;-76
2023/01/08 05:56:50;;;;;;;2.10;1.55;;;14.00;46.80;;;;;;6157592;28;20090;-77
2023/01/08 05:59:51;;;;;;;2.60;1.25;;;14.10;46.70;;;;;;6156727;28;20696;-77
2023/01/08 06:02:51;;;;;;;2.28;1.33;;;14.20;46.60;;;;;;6155432;28;20053;-77
2023/01/08 06:05:52;;;;;;;5.18;1.48;;;14.30;46.50;;;;;;6156531;28;20031;-77
2023/01/08 06:08:53;;;;;;;2.83;1.23;;;14.30;46.50;;;;;;6158963;28;20075;-77
2023/01/08 06:11:56;;;;;;;1.65;0.60;;;14.50;46.60;;;;;;6157970;28;20439;-77
2023/01/08 06:14:57;;;;;;;2.45;0.80;;;14.80;46.40;;;;;;6156789;28;20042;-78
2023/01/08 06:18:02;;;;;;;1.55;1.13;;;15.20;46.00;;;;;;6155077;28;20036;-77
2023/01/08 06:21:04;;;;;;;2.80;0.70;;;15.40;45.40;;;;;;6156259;28;20031;-76
2023/01/08 06:24:05;;;;;;;1.42;0.65;;;15.60;45.10;;;;;;6158679;28;20055;-76
2023/01/08 06:27:06;;;;;;;1.88;0.80;;;15.80;45.00;;;;;;6154909;28;20521;-78
2023/01/08 06:30:09;;;;;;;1.08;0.80;;;16.00;44.80;;;;;;6153007;28;20047;-76
2023/01/08 06:33:09;;;;;;;1.42;0.90;;;16.30;44.60;;;;;;6155996;28;20047;-77
2023/01/08 06:36:10;;;;;;;2.72;1.52;;;16.50;44.70;;;;;;6149629;28;20046;-76
2023/01/08 06:39:12;;;;;;;1.02;0.82;;;16.50;45.40;;;;;;6159534;28;20047;-76
2023/01/08 06:42:13;;;;;;;1.77;1.17;;;16.50;45.90;;;;;;6159486;28;20119;-77
2023/01/08 06:45:13;;;;;;;2.10;1.15;;;16.40;46.30;;;;;;6160008;28;20039;-78
2023/01/08 06:48:15;;;;;;;7.70;1.50;;;16.40;46.80;;;;;;6162807;28;20074;-78
2023/01/08 06:51:16;;;;;;;2.13;1.30;;;16.30;47.20;;;;;;6159594;28;20075;-76
2023/01/08 06:54:17;;;;;;;1.85;1.40;;;16.30;46.80;;;;;;6162798;28;20047;-77
2023/01/08 06:57:19;;;;;;;2.95;1.80;;;16.20;45.70;;;;;;6158658;28;20047;-77
2023/01/08 07:00:21;;;;;;;7.75;1.88;;;16.00;45.10;;;;;;6162035;28;20383;-77
2023/01/08 07:03:22;;;;;;;2.92;1.23;;;15.80;44.70;;;;;;6174257;28;20042;-77
2023/01/08 07:06:23;;;;;;;2.78;1.90;;;15.40;44.70;;;;;;6160713;28;20047;-77
2023/01/08 07:09:24;;;;;;;3.10;1.75;;;15.30;44.80;;;;;;6159970;28;20051;-76
2023/01/08 07:12:25;;;;;;;2.67;1.33;;;15.10;45.10;;;;;;6141535;28;20078;-76
2023/01/08 07:15:26;;;;;;;4.03;1.80;;;14.90;45.20;;;;;;6158270;28;20039;-77
2023/01/08 07:18:27;;;;;;;6.30;2.13;;;14.70;45.60;;;;;;6155960;28;20050;-76
2023/01/08 07:21:28;;;;;;;3.08;1.58;;;14.50;45.90;;;;;;6143952;28;20161;-76
2023/01/08 07:24:28;;;;;;;3.42;1.50;;;14.30;46.60;;;;;;6130176;28;20135;-78
2023/01/08 07:27:29;;;;;;;3.42;1.88;;;14.10;47.40;;;;;;6159978;28;20121;-77
2023/01/08 07:30:31;;;;;;;3.70;1.45;;;13.90;48.10;;;;;;6145108;28;20094;-77
2023/01/08 07:33:32;;;;;;;6.28;2.38;;;13.90;48.60;;;;;;6159045;28;20111;-78
2023/01/08 07:36:33;;;;;;;2.85;1.75;;;13.70;48.80;;;;;;6158359;28;20127;-78
2023/01/08 07:39:34;;;;;;;2.75;1.50;;;13.60;49.30;;;;;;6141428;28;20049;-78
2023/01/08 07:42:35;;;;;;;4.43;1.65;;;13.50;49.70;;;;;;6158498;28;20443;-76
2023/01/08 07:45:35;;;;;;;3.38;1.77;;;13.50;50.20;;;;;;6134379;28;20450;-77
2023/01/08 07:48:36;;;;;;;5.82;1.98;;;13.40;50.40;;;;;;6139624;28;20094;-76
2023/01/08 07:51:37;;;;;;;3.67;1.42;;;13.30;50.60;;;;;;6144610;28;20050;-76
2023/01/08 07:54:38;;;;;;;2.30;1.33;;;13.30;50.50;;;;;;6164090;28;20170;-76
2023/01/08 07:57:39;;;;;;;4.28;1.63;;;13.30;50.90;;;;;;6155931;28;20577;-76
2023/01/08 08:00:40;;;;;;;5.75;1.65;;;13.20;51.30;;;;;;6141012;28;20047;-76
2023/01/08 08:03:41;;;;;;;4.75;1.75;;;13.20;51.80;;;;;;6158177;28;20055;-78
2023/01/08 08:06:41;;;;;;;1.63;1.08;;;13.10;51.90;;;;;;6143927;28;20130;-77
2023/01/08 08:09:42;;;;;;;2.65;1.40;;;13.10;51.90;;;;;;6128079;28;20050;-79
2023/01/08 08:12:44;;;;;;;5.15;1.65;;;13.10;52.00;;;;;;6142911;28;20069;-77
2023/01/08 08:15:45;;;;;;;2.80;1.65;;;13.10;52.30;;;;;;6158311;28;20411;-78
2023/01/08 08:18:45;;;;;;;3.47;1.50;;;13.20;52.40;;;;;;6158940;28;20043;-77
2023/01/08 08:21:46;;;;;;;3.58;1.75;;;13.20;52.40;;;;;;6126207;28;20388;-77
2023/01/08 08:24:47;;;;;;;4.00;1.95;;;13.20;52.90;;;;;;6142727;28;20030;-78
2023/01/08 08:27:48;;;;;;;3.42;1.80;;;13.10;53.20;;;;;;6118030;28;20047;-76
2023/01/08 08:30:50;;;;;;;4.82;1.70;;;13.00;53.40;;;;;;6134732;28;20035;-77
2023/01/08 08:33:51;;;;;;;4.10;2.00;;;13.00;54.20;;;;;;6133992;28;20041;-77
2023/01/08 08:36:52;;;;;;;2.97;1.73;;;13.00;54.00;;;;;;6139523;28;20035;-76
2023/01/08 08:39:53;;;;;;;4.15;1.95;;;13.00;54.20;;;;;;6158404;28;20147;-76
2023/01/08 08:43:02;;;;;;;5.15;1.90;;;12.90;54.20;;;;;;6123236;28;20074;-77
2023/01/08 08:46:03;;;;;;;4.75;2.10;;;13.00;54.40;;;;;;6157206;28;20050;-77
2023/01/08 08:49:04;;;;;;;3.33;1.60;;;13.00;54.60;;;;;;6119041;28;20050;-77
2023/01/08 08:52:05;;;;;;;3.72;2.00;;;13.00;54.80;;;;;;6155244;28;20349;-76
2023/01/08 08:55:06;;;;;;;5.30;1.60;;;13.00;54.80;;;;;;6140119;28;20055;-76
2023/01/08 08:58:10;;;;;;;3.67;1.95;;;13.00;55.00;;;;;;6153734;28;20102;-78
2023/01/08 09:01:11;;;;;;;4.95;2.28;;;13.00;55.20;;;;;;6134807;28;20396;-76
2023/01/08 09:04:12;;;;;;;5.13;2.20;;;13.00;55.40;;;;;;6136032;28;20488;-78
2023/01/08 09:07:12;;;;;;;5.57;2.47;;;13.00;55.90;;;;;;6141333;28;20074;-77
2023/01/08 09:10:13;;;;;;;3.92;1.83;;;13.00;56.30;;;;;;6160725;28;20043;-77
2023/01/08 09:13:14;;;;;;;5.45;2.60;;;13.00;56.50;;;;;;6156560;28;20464;-78
2023/01/08 09:16:15;;;;;;;4.20;2.00;;;13.10;56.50;;;;;;6159405;28;20070;-76
2023/01/08 09:19:16;;;;;;;3.25;1.80;;;13.10;56.50;;;;;;6171215;28;20077;-76
2023/01/08 09:22:17;;;;;;;4.00;1.88;;;13.00;56.30;;;;;;6159422;28;20416;-76
2023/01/08 09:25:18;;;;;;;4.32;2.10;;;13.00;56.40;;;;;;6156296;28;20074;-77
2023/01/08 09:28:19;;;;;;;5.50;2.45;;;12.90;56.70;;;;;;6158716;28;20636;-77
2023/01/08 09:31:20;;;;;;;3.00;1.83;;;12.80;56.80;;;;;;6155435;28;20039;-78
2023/01/08 09:34:21;;;;;;;4.38;2.42;;;12.80;57.00;;;;;;6157812;28;20114;-78
2023/01/08 09:37:22;;;;;;;11.77;4.45;;;12.80;57.20;;;;;;6162388;28;20429;-78
2023/01/08 09:40:27;;;;;;;8.32;4.72;;;12.80;57.40;;;;;;6150188;28;20498;-79
2023/01/08 09:43:32;;;;;;;4.18;2.67;;;12.80;57.40;;;;;;6167858;28;20460;-79
2023/01/08 09:46:35;;;;;;;12.18;2.50;;;12.80;57.40;;;;;;6148895;28;20054;-78
2023/01/08 09:49:41;;;;;;;7.40;2.30;;;12.80;57.40;;;;;;6158954;28;20102;-78
2023/01/08 09:52:42;;;;;;;4.25;2.10;;;12.80;57.40;;;;;;6157494;28;20612;-78
2023/01/08 09:55:45;;;;;;;11.15;3.75;;;12.80;57.50;;;;;;6139732;28;20134;-80
2023/01/08 09:58:50;;;;;;;9.90;3.33;;;12.70;57.60;;;;;;6149996;28;20102;-76
2023/01/08 10:01:52;;;;;;;5.40;1.98;;;12.70;57.90;;;;;;6150055;28;20046;-79
2023/01/08 10:04:58;;;;;;;6.90;2.70;;;12.70;58.20;;;;;;6154113;28;20066;-78
2023/01/08 10:07:59;;;;;;;6.45;2.30;;;12.60;58.40;;;;;;6155869;28;20458;-79
2023/01/08 10:11:01;;;;;;;9.48;2.70;;;12.50;58.70;;;;;;6160767;28;20027;-80
2023/01/08 10:14:03;;;;;;;12.13;4.95;;;12.50;59.00;;;;;;6174729;28;20035;-79
2023/01/08 10:17:14;;;;;;;10.18;4.15;;;12.50;59.20;;;;;;6174550;28;20090;-78
2023/01/08 10:20:21;;;;;;;3.88;2.20;;;12.60;59.30;;;;;;6192305;28;20054;-77
2023/01/08 10:23:22;;;;;;;3.47;1.55;;;12.60;59.50;;;;;;6163705;28;20560;-78
2023/01/08 10:26:31;;;;;;;5.78;2.85;;;12.60;60.10;;;;;;6160275;28;20051;-78
2023/01/08 10:29:32;;;;;;;7.72;2.33;;;12.60;60.40;;;;;;6157832;28;20109;-80
2023/01/08 10:32:35;;;;;;;5.88;2.92;;;12.60;60.30;;;;;;6153193;28;20050;-80
2023/01/08 10:35:39;;;;;;;5.90;2.78;;;12.70;60.10;;;;;;6140096;28;20039;-80
2023/01/08 10:38:59;;;;;;;10.15;3.75;;;12.80;60.00;;;;;;6158599;28;20051;-80
2023/01/08 10:42:05;;;;;;;24.52;8.30;;;12.80;59.90;;;;;;6155144;28;20047;-79
2023/01/08 10:45:20;;;;;;;8.30;4.40;;;12.80;59.80;;;;;;6134101;28;20440;-81
2023/01/08 10:48:24;;;;;;;6.13;2.38;;;12.90;59.70;;;;;;6156596;28;20486;-80
2023/01/08 10:51:27;;;;;;;7.75;2.47;;;13.00;59.50;;;;;;6172810;28;20195;-80
2023/01/08 10:54:38;;;;;;;9.65;4.10;;;13.10;59.20;;;;;;6150176;28;20039;-80
2023/01/08 10:58:00;;;;;;;5.32;2.90;;;13.10;58.90;;;;;;6155378;28;20039;-79
2023/01/08 11:01:37;;;;;;;7.45;2.65;;;13.00;58.90;;;;;;6149136;28;20039;-80
2023/01/08 11:04:38;;;;;;;5.57;2.53;;;13.00;58.90;;;;;;6149321;28;20108;-80
2023/01/08 11:07:39;;;;;;;12.45;5.57;;;13.10;59.10;;;;;;6141882;28;20043;-82
2023/01/08 11:10:40;;;;;;;17.45;5.07;;;13.00;59.20;;;;;;6162374;28;20046;-80
2023/01/08 11:13:58;;;;;;;16.90;5.45;;;13.00;59.50;;;;;;6159928;28;20050;-80
2023/01/08 11:17:01;;;;;;;17.08;5.38;;;13.00;60.00;;;;;;6157830;28;20065;-79
2023/01/08 11:20:08;;;;;;;11.40;5.22;;;12.90;60.10;;;;;;6152474;28;20104;-79
2023/01/08 11:23:19;;;;;;;7.45;4.38;;;13.00;60.40;;;;;;6154620;28;20134;-80
2023/01/08 11:26:21;;;;;;;6.18;2.50;;;13.00;60.50;;;;;;6155240;28;20126;-80
2023/01/08 11:29:33;;;;;;;5.88;2.80;;;13.00;60.50;;;;;;6149466;28;20344;-79
2023/01/08 11:33:07;;;;;;;11.13;4.78;;;13.10;61.40;;;;;;6153103;28;20066;-80
2023/01/08 11:36:33;;;;;;;9.18;2.90;;;13.20;60.90;;;;;;6142284;28;20043;-79
2023/01/08 11:39:36;;;;;;;17.23;4.55;;;13.20;61.00;;;;;;6156403;28;20046;-79
2023/01/08 11:42:58;;;;;;;10.10;4.35;;;13.20;60.90;;;;;;6153782;28;20046;-80
2023/01/08 11:46:17;;;;;;;9.07;3.58;;;13.20;60.90;;;;;;6152179;28;20066;-80
2023/01/08 11:49:18;;;;;;;4.35;2.42;;;13.20;60.90;;;;;;6154801;28;20044;-81
2023/01/08 11:52:24;;;;;;;5.25;2.80;;;13.30;61.10;;;;;;6159590;28;20058;-78
2023/01/08 11:55:35;;;;;;;4.50;2.53;;;13.30;61.10;;;;;;6153929;28;20376;-79
2023/01/08 11:58:48;;;;;;;7.57;3.13;;;13.30;61.20;;;;;;6157135;28;20086;-80
2023/01/08 12:01:54;;;;;;;6.70;2.72;;;13.30;60.90;;;;;;6156583;28;20039;-80
2023/01/08 12:05:08;;;;;;;6.55;2.67;;;13.30;60.90;;;;;;6142675;28;20078;-79
2023/01/08 12:08:19;;;;;;;12.25;4.63;;;13.30;61.10;;;;;;6158535;28;20049;-79
2023/01/08 12:11:42;;;;;;;14.70;4.95;;;13.30;61.20;;;;;;6142729;28;20035;-79
2023/01/08 12:15:01;;;;;;;8.60;3.50;;;13.30;61.10;;;;;;6151953;28;20039;-81
2023/01/08 12:18:46;;;;;;;7.90;2.97;;;13.30;61.20;;;;;;6125857;28;20039;-80
2023/01/08 12:21:59;;;;;;;5.07;2.60;;;13.30;61.40;;;;;;6053316;29;20077;-80
2023/01/08 12:25:21;;;;;;;5.10;3.03;;;13.30;61.70;;;;;;6053674;29;20110;-82
2023/01/08 12:28:42;;;;;;;6.50;2.85;;;13.20;61.90;;;;;;6048943;29;20041;-81
2023/01/08 12:32:23;;;;;;;8.52;2.90;;;13.30;62.10;;;;;;6058533;29;20041;-80
2023/01/08 12:35:31;;;;;;;11.60;3.75;;;13.30;62.20;;;;;;6044606;29;20068;-81
2023/01/08 12:38:43;;;;;;;6.32;2.83;;;13.40;62.20;;;;;;6053356;29;20037;-80
2023/01/08 12:41:45;;;;;;;7.82;3.70;;;13.30;62.20;;;;;;6058878;29;20130;-80
2023/01/08 12:44:47;;;;;;;8.23;3.75;;;13.30;62.20;;;;;;6054359;29;20037;-79
2023/01/08 12:48:05;;;;;;;6.85;3.47;;;13.40;62.40;;;;;;6047623;29;20179;-79
2023/01/08 12:51:17;;;;;;;9.95;3.50;;;13.50;62.30;;;;;;6060488;28;20452;-80
2023/01/08 12:54:23;;;;;;;8.68;3.25;;;13.50;62.10;;;;;;6139767;28;20039;-79
2023/01/08 12:57:27;;;;;;;8.25;3.05;;;13.60;62.10;;;;;;6156783;28;20039;-80
2023/01/08 13:00:51;;;;;;;9.10;3.50;;;13.70;62.00;;;;;;6132509;28;20363;-80
2023/01/08 13:03:53;;;;;;;10.68;3.63;;;13.80;61.90;;;;;;6121384;28;20158;-78
2023/01/08 13:07:03;;;;;;;12.95;4.22;;;13.80;61.80;;;;;;6120003;28;20043;-78
2023/01/08 13:10:07;;;;;;;13.63;4.20;;;13.80;61.90;;;;;;6147413;28;20051;-80
2023/01/08 13:13:27;;;;;;;6.90;3.65;;;13.80;62.00;;;;;;6146785;28;20039;-81
2023/01/08 13:16:28;;;;;;;6.05;3.42;;;13.80;61.80;;;;;;6122773;28;20035;-79
2023/01/08 13:19:39;;;;;;;6.50;3.17;;;13.80;61.80;;;;;;6124708;28;20436;-80
2023/01/08 13:22:41;;;;;;;8.40;3.22;;;13.80;61.80;;;;;;6144441;28;20120;-79
2023/01/08 13:25:51;;;;;;;9.98;3.50;;;13.80;61.80;;;;;;6141570;28;20122;-79
2023/01/08 13:28:52;;;;;;;6.05;3.38;;;13.80;61.80;;;;;;6158990;28;20051;-79
2023/01/08 13:31:53;;;;;;;12.77;4.30;;;13.90;61.80;;;;;;6154420;28;20046;-78
2023/01/08 13:35:14;;;;;;;6.85;4.05;;;14.00;61.80;;;;;;6157113;28;20047;-78
2023/01/08 13:38:19;;;;;;;6.95;3.33;;;14.20;61.60;;;;;;6155435;28;20134;-79
2023/01/08 13:41:58;;;;;;;6.40;3.17;;;14.20;61.30;;;;;;6111605;28;20127;-80
2023/01/08 13:45:02;;;;;;;6.40;2.53;;;14.20;61.30;;;;;;6075012;29;20043;-79
2023/01/08 13:48:03;;;;;;;6.82;3.50;;;14.30;61.20;;;;;;6105846;29;20032;-80
2023/01/08 13:51:05;;;;;;;6.90;3.85;;;14.30;61.00;;;;;;6107031;29;20058;-79
2023/01/08 13:54:17;;;;;;;5.68;3.20;;;14.40;60.90;;;;;;6092121;29;20055;-80
2023/01/08 13:57:19;;;;;;;10.18;3.85;;;14.40;60.50;;;;;;6103902;29;20127;-79
2023/01/08 14:00:29;;;;;;;9.30;3.78;;;14.50;60.50;;;;;;6108829;29;20156;-79
2023/01/08 14:03:38;;;;;;;6.75;3.63;;;14.50;60.40;;;;;;6099167;29;20079;-79
2023/01/08 14:06:39;;;;;;;9.15;3.85;;;14.40;60.20;;;;;;6089924;29;20635;-80
2023/01/08 14:09:40;;;;;;;6.95;3.53;;;14.40;60.40;;;;;;6100768;29;20063;-81
2023/01/08 14:12:41;;;;;;;18.40;7.57;;;14.40;60.50;;;;;;6120257;29;20098;-82
2023/01/08 14:15:43;;;;;;;11.07;5.78;;;14.40;60.70;;;;;;6115502;29;20039;-81
2023/01/08 14:18:45;;;;;;;18.45;6.10;;;14.30;60.90;;;;;;6123077;29;20043;-78
2023/01/08 14:21:57;;;;;;;12.50;5.32;;;14.20;61.20;;;;;;6135573;28;20058;-81
2023/01/08 14:25:05;;;;;;;14.63;5.28;;;14.10;61.50;;;;;;6142858;28;20154;-81
2023/01/08 14:28:06;;;;;;;19.15;7.88;;;14.10;61.60;;;;;;6146614;28;20043;-79
2023/01/08 14:31:20;;;;;;;10.45;4.50;;;14.10;61.80;;;;;;6134620;28;20055;-82
2023/01/08 14:34:23;;;;;;;12.35;4.30;;;14.10;61.80;;;;;;6148568;28;20365;-78
2023/01/08 14:37:24;;;;;;;6.72;3.35;;;14.00;61.80;;;;;;6125763;28;20035;-81
2023/01/08 14:40:38;;;;;;;6.47;3.53;;;14.00;62.10;;;;;;6121265;28;20098;-80
2023/01/08 14:43:43;;;;;;;7.18;4.15;;;14.00;62.50;;;;;;6146587;28;20486;-78
2023/01/08 14:46:45;;;;;;;8.73;3.85;;;13.90;62.60;;;;;;6140683;28;20146;-76
2023/01/08 14:49:51;;;;;;;7.00;4.03;;;13.90;62.80;;;;;;6158172;28;20055;-78
2023/01/08 14:52:57;;;;;;;9.55;3.92;;;13.90;62.80;;;;;;6154492;28;20046;-78
2023/01/08 14:55:59;;;;;;;7.07;3.83;;;13.90;62.80;;;;;;6154657;28;20039;-78
2023/01/08 14:59:07;;;;;;;6.68;2.90;;;13.90;62.90;;;;;;6155539;28;20047;-78
2023/01/08 15:02:22;;;;;;;7.05;3.78;;;13.80;63.10;;;;;;6135442;28;20070;-78
2023/01/08 15:05:27;;;;;;;9.02;4.07;;;13.80;63.30;;;;;;6152845;28;20536;-77
2023/01/08 15:08:43;;;;;;;12.82;3.97;;;13.70;63.40;;;;;;6166457;28;20066;-77
2023/01/08 15:11:54;;;;;;;18.65;7.63;;;13.70;63.70;;;;;;6150257;28;20040;-76
2023/01/08 15:14:55;;;;;;;9.57;4.85;;;13.70;64.20;;;;;;6139111;28;20036;-76
2023/01/08 15:17:56;;;;;;;7.47;3.92;;;13.60;64.30;;;;;;6167217;28;20046;-77
2023/01/08 15:20:58;;;;;;;9.85;4.47;;;13.60;64.40;;;;;;6154371;28;20078;-78
2023/01/08 15:24:00;;;;;;;10.13;4.15;;;13.70;64.40;;;;;;6163721;28;20229;-77
2023/01/08 15:27:08;;;;;;;7.20;3.63;;;13.70;64.30;;;;;;6130499;28;20042;-76
2023/01/08 15:30:35;;;;;;;7.20;3.80;;;13.70;64.20;;;;;;6152231;28;20131;-76
2023/01/08 15:33:36;;;;;;;6.22;3.10;;;13.60;64.30;;;;;;6149413;28;20122;-76
2023/01/08 15:36:37;;;;;;;9.15;3.85;;;13.60;64.30;;;;;;6168326;28;20039;-76
2023/01/08 15:39:38;;;;;;;7.18;4.22;;;13.50;64.40;;;;;;6133263;28;20039;-74
2023/01/08 15:45:59;;;;;;;9.77;4.30;;;13.50;64.80;;;;;;6145465;28;20106;-75
2023/01/08 15:48:59;;;;;;;6.18;3.13;;;13.40;64.80;;;;;;6131575;28;20043;-76
2023/01/08 15:52:00;;;;;;;8.32;4.15;;;13.40;64.80;;;;;;6147248;28;20066;-77
2023/01/08 15:55:01;;;;;;;7.47;3.70;;;13.40;64.80;;;;;;6153852;28;20130;-76
2023/01/08 15:58:03;;;;;;;9.45;3.85;;;13.40;65.00;;;;;;6143343;28;20535;-76
2023/01/08 16:01:04;;;;;;;9.40;4.15;;;13.40;65.10;;;;;;6161094;28;20059;-77
2023/01/08 16:04:05;;;;;;;9.48;3.85;;;13.30;65.40;;;;;;6156103;28;20092;-75
2023/01/08 16:07:05;;;;;;;8.50;4.30;;;13.30;65.70;;;;;;6151087;28;20047;-77